Time;durP1;ratioP1;P1;durP2;ratioP2;P2;SDS_P1;SDS_P2;PMS_P1;PMS_P2;Temp;Humidity;BMP_temperature;BMP_pressure;BME280_temperature;BME280_humidity;BME280_pressure;Samples;Min_cycle;Max_cycle;Signal;HPM_P1;HPM_P2
2022/05/03 00:01:56;;;;;;;16.10;11.85;;;6.90;99.90;;;;;;5031103;28;20519;-69
2022/05/03 00:04:35;;;;;;;19.42;13.43;;;6.90;99.90;;;;;;5049434;28;20053;-69
2022/05/03 00:07:06;;;;;;;15.40;12.80;;;6.80;99.90;;;;;;5048277;28;20064;-69
2022/05/03 00:09:52;;;;;;;15.68;12.32;;;6.80;99.90;;;;;;5019566;28;20053;-69
2022/05/03 00:12:23;;;;;;;18.25;12.73;;;6.70;99.90;;;;;;5030931;28;20049;-68
2022/05/03 00:14:56;;;;;;;18.75;12.60;;;6.60;99.90;;;;;;5048256;28;20413;-69
2022/05/03 00:17:22;;;;;;;20.35;13.07;;;6.60;99.90;;;;;;5040537;28;20092;-69
2022/05/03 00:19:48;;;;;;;20.70;13.60;;;6.60;99.90;;;;;;5049642;28;20049;-69
2022/05/03 00:22:14;;;;;;;21.92;13.52;;;6.50;99.90;;;;;;5031060;28;20049;-69
2022/05/03 00:24:41;;;;;;;28.02;13.25;;;6.50;99.90;;;;;;5019921;28;20051;-69
2022/05/03 00:27:07;;;;;;;18.05;13.70;;;6.40;99.90;;;;;;5020843;28;20049;-69
2022/05/03 00:29:33;;;;;;;15.93;12.63;;;6.40;99.90;;;;;;5028177;28;20887;-68
2022/05/03 00:32:02;;;;;;;18.33;12.93;;;6.40;99.90;;;;;;5040713;28;20399;-69
2022/05/03 00:34:30;;;;;;;20.52;14.77;;;6.40;99.90;;;;;;5047691;28;20055;-68
2022/05/03 00:36:55;;;;;;;;;;;6.30;99.90;;;;;;5048434;28;20080;-68
2022/05/03 00:39:21;;;;;;;23.50;15.88;;;6.30;99.90;;;;;;5048179;28;20362;-69
2022/05/03 00:42:01;;;;;;;17.48;12.27;;;6.20;99.90;;;;;;5048858;28;20055;-68
2022/05/03 00:47:17;;;;;;;16.43;12.30;;;6.10;99.90;;;;;;5030733;28;20055;-68
2022/05/03 00:50:18;;;;;;;17.58;13.23;;;6.10;99.90;;;;;;5042280;28;20303;-68
2022/05/03 00:53:24;;;;;;;20.38;13.57;;;6.00;99.90;;;;;;5029259;28;20053;-68
2022/05/03 00:55:52;;;;;;;21.33;14.10;;;6.00;99.90;;;;;;4950606;28;20047;-68
2022/05/03 00:58:45;;;;;;;17.75;13.10;;;6.00;99.90;;;;;;4967690;28;20109;-69
2022/05/03 01:01:32;;;;;;;18.40;12.00;;;6.00;99.90;;;;;;5011076;28;20080;-68
2022/05/03 01:04:13;;;;;;;17.92;12.48;;;5.90;99.90;;;;;;5028009;28;20056;-69
2022/05/03 01:06:47;;;;;;;20.08;13.55;;;5.90;99.90;;;;;;5030605;28;20059;-69
2022/05/03 01:09:20;;;;;;;19.85;13.45;;;5.80;99.90;;;;;;5048386;28;20544;-69
2022/05/03 01:12:12;;;;;;;18.70;13.40;;;5.80;99.90;;;;;;5026818;28;20168;-68
2022/05/03 01:14:51;;;;;;;18.58;12.43;;;5.80;99.90;;;;;;5023588;28;20049;-68
2022/05/03 01:17:31;;;;;;;16.67;13.15;;;5.70;99.90;;;;;;5043807;28;20128;-69
2022/05/03 01:20:06;;;;;;;19.88;14.20;;;5.60;99.90;;;;;;5048023;28;20056;-68
2022/05/03 01:22:53;;;;;;;20.83;13.35;;;5.70;99.90;;;;;;5047849;28;20118;-68
2022/05/03 01:25:44;;;;;;;20.08;15.30;;;5.60;99.90;;;;;;5022022;28;20573;-68
2022/05/03 01:28:30;;;;;;;18.50;14.52;;;5.60;99.90;;;;;;5047718;28;20161;-68
2022/05/03 01:31:02;;;;;;;18.45;13.45;;;5.60;99.90;;;;;;5030257;28;20090;-68
2022/05/03 01:33:38;;;;;;;22.73;15.32;;;5.60;99.90;;;;;;5029699;28;20053;-69
2022/05/03 01:36:07;;;;;;;18.63;14.60;;;5.60;99.90;;;;;;5027211;28;20060;-68
2022/05/03 01:38:55;;;;;;;18.88;14.77;;;5.60;99.90;;;;;;5038121;28;20049;-68
2022/05/03 01:41:28;;;;;;;20.08;14.60;;;5.60;99.90;;;;;;5046114;28;20418;-69
2022/05/03 01:44:04;;;;;;;22.80;14.95;;;5.50;99.90;;;;;;5048293;28;20048;-68
2022/05/03 01:46:37;;;;;;;19.17;14.52;;;5.50;99.90;;;;;;5028334;28;20434;-68
2022/05/03 01:52:26;;;;;;;21.35;15.23;;;5.50;99.90;;;;;;5023085;28;20056;-68
2022/05/03 01:55:27;;;;;;;23.85;14.45;;;5.50;99.90;;;;;;5027175;28;20099;-68
2022/05/03 01:58:33;;;;;;;20.20;14.10;;;5.40;99.90;;;;;;5013779;28;20057;-68
2022/05/03 02:01:11;;;;;;;23.27;13.77;;;5.40;99.90;;;;;;5047595;28;20429;-69
2022/05/03 02:04:09;;;;;;;21.42;16.10;;;5.40;99.90;;;;;;5044200;28;20134;-68
2022/05/03 02:07:07;;;;;;;17.35;13.73;;;5.40;99.90;;;;;;5039068;28;20045;-68
2022/05/03 02:09:52;;;;;;;23.00;16.20;;;5.30;99.90;;;;;;5040828;28;20084;-68
2022/05/03 02:12:21;;;;;;;24.73;15.60;;;5.30;99.90;;;;;;5046339;28;20408;-68
2022/05/03 02:15:00;;;;;;;22.30;16.55;;;5.30;99.90;;;;;;5047211;28;20045;-68
2022/05/03 02:18:07;;;;;;;19.70;14.77;;;5.20;99.90;;;;;;5047763;28;20053;-68
2022/05/03 02:20:51;;;;;;;17.33;14.55;;;5.20;99.90;;;;;;4985693;28;20506;-68
2022/05/03 02:23:48;;;;;;;19.10;15.23;;;5.20;99.90;;;;;;5019962;28;20517;-69
2022/05/03 02:26:36;;;;;;;17.67;12.90;;;5.10;99.90;;;;;;5029177;28;20059;-69
2022/05/03 02:29:13;;;;;;;25.50;17.00;;;5.00;99.90;;;;;;5029825;28;20244;-68
2022/05/03 02:31:59;;;;;;;18.67;13.50;;;5.00;99.90;;;;;;5047609;28;20075;-68
2022/05/03 02:34:40;;;;;;;18.23;13.82;;;5.00;99.90;;;;;;5042743;28;20045;-68
2022/05/03 02:37:17;;;;;;;16.23;13.75;;;4.90;99.90;;;;;;5032989;28;20383;-69
2022/05/03 02:40:09;;;;;;;19.83;14.85;;;4.90;99.90;;;;;;5033284;28;20560;-68
2022/05/03 02:42:35;;;;;;;18.92;13.30;;;4.80;99.90;;;;;;5033722;28;20049;-68
2022/05/03 02:45:03;;;;;;;16.90;13.80;;;4.80;99.90;;;;;;5033263;28;20053;-68
2022/05/03 02:47:36;;;;;;;18.70;14.23;;;4.80;99.90;;;;;;5032778;28;20111;-68
2022/05/03 02:50:05;;;;;;;22.20;15.20;;;4.80;99.90;;;;;;5033468;28;20041;-68
2022/05/03 02:52:40;;;;;;;20.02;16.00;;;4.80;99.90;;;;;;5050962;28;20449;-68
2022/05/03 02:55:19;;;;;;;19.27;15.45;;;4.80;99.90;;;;;;5032604;28;20470;-68
2022/05/03 02:57:54;;;;;;;22.02;16.98;;;4.80;99.90;;;;;;5023705;28;20056;-68
2022/05/03 03:03:27;;;;;;;31.85;19.25;;;4.70;99.90;;;;;;5036602;28;20166;-68
2022/05/03 03:05:57;;;;;;;25.57;18.40;;;4.70;99.90;;;;;;5048047;28;20071;-69
2022/05/03 03:08:23;;;;;;;27.27;18.55;;;4.80;99.90;;;;;;5028042;28;20120;-68
2022/05/03 03:11:09;;;;;;;26.45;17.08;;;4.70;99.90;;;;;;5049480;28;20124;-68
2022/05/03 03:13:43;;;;;;;20.83;17.15;;;4.70;99.90;;;;;;5034388;28;20418;-69
2022/05/03 03:16:13;;;;;;;29.42;18.00;;;4.70;99.90;;;;;;5049979;28;20147;-68
2022/05/03 03:18:43;;;;;;;21.80;15.60;;;4.60;99.90;;;;;;5050312;28;20052;-68
2022/05/03 03:21:12;;;;;;;32.65;17.70;;;4.60;99.90;;;;;;5050454;28;20060;-69
2022/05/03 03:23:39;;;;;;;21.27;16.13;;;4.60;99.90;;;;;;5050399;28;20183;-69
2022/05/03 03:26:06;;;;;;;19.65;15.18;;;4.60;99.90;;;;;;5050402;28;20083;-68
2022/05/03 03:28:35;;;;;;;35.17;19.15;;;4.60;99.90;;;;;;5050573;28;20120;-68
2022/05/03 03:31:05;;;;;;;25.30;18.83;;;4.60;99.90;;;;;;5050071;28;20056;-68
2022/05/03 03:33:34;;;;;;;34.55;21.67;;;4.60;99.90;;;;;;5049520;28;20106;-68
2022/05/03 03:36:02;;;;;;;25.33;18.67;;;4.60;99.90;;;;;;5050190;28;20082;-68
2022/05/03 03:38:43;;;;;;;23.98;17.67;;;4.60;99.90;;;;;;5046280;28;20053;-68
2022/05/03 03:41:09;;;;;;;28.42;19.20;;;4.60;99.90;;;;;;5047240;28;20449;-68
2022/05/03 03:43:35;;;;;;;31.05;20.42;;;4.50;99.90;;;;;;5030931;28;20044;-68
2022/05/03 03:46:00;;;;;;;29.98;19.65;;;4.50;99.90;;;;;;5029007;28;20053;-69
2022/05/03 03:48:26;;;;;;;23.63;18.35;;;4.50;99.90;;;;;;5031987;28;20041;-69
2022/05/03 03:50:55;;;;;;;26.05;18.42;;;4.50;99.90;;;;;;5031730;28;20489;-67
2022/05/03 03:53:22;;;;;;;27.48;19.45;;;4.50;99.90;;;;;;5043521;28;20049;-68
2022/05/03 03:55:49;;;;;;;25.17;19.10;;;4.50;99.90;;;;;;5047213;28;20464;-68
2022/05/03 03:58:17;;;;;;;23.38;17.42;;;4.50;99.90;;;;;;5043849;28;20055;-68
2022/05/03 04:00:43;;;;;;;23.85;17.85;;;4.50;99.90;;;;;;5026239;28;20063;-68
2022/05/03 04:03:09;;;;;;;32.13;20.30;;;4.50;99.90;;;;;;5027851;28;20416;-68
2022/05/03 04:05:35;;;;;;;25.50;18.67;;;4.50;99.90;;;;;;5021151;28;20045;-68
2022/05/03 04:08:01;;;;;;;30.17;20.05;;;4.50;99.90;;;;;;5022234;28;20067;-68
2022/05/03 04:10:27;;;;;;;25.40;18.60;;;4.50;99.90;;;;;;5049304;28;20033;-68
2022/05/03 04:12:53;;;;;;;29.42;19.50;;;4.50;99.90;;;;;;5030793;28;20099;-68
2022/05/03 04:15:18;;;;;;;22.08;17.40;;;4.60;99.90;;;;;;5030924;28;20041;-68
2022/05/03 04:17:44;;;;;;;25.88;18.88;;;4.60;99.90;;;;;;5046525;28;20128;-68
2022/05/03 04:20:18;;;;;;;31.63;20.63;;;4.60;99.90;;;;;;5045948;28;20075;-68
2022/05/03 04:22:43;;;;;;;25.45;18.73;;;4.70;99.90;;;;;;5047451;28;20128;-68
2022/05/03 04:25:10;;;;;;;26.35;19.30;;;4.70;99.90;;;;;;5049094;28;20112;-68
2022/05/03 04:27:35;;;;;;;28.95;20.42;;;4.70;99.90;;;;;;5030705;28;20102;-68
2022/05/03 04:30:03;;;;;;;34.13;20.63;;;4.80;99.90;;;;;;5048883;28;20052;-68
2022/05/03 04:32:33;;;;;;;29.50;20.38;;;4.90;99.90;;;;;;5048835;28;20114;-68
2022/05/03 04:34:59;;;;;;;23.58;19.88;;;5.00;99.90;;;;;;5048581;28;20098;-68
2022/05/03 04:37:26;;;;;;;27.48;20.17;;;5.00;99.90;;;;;;5048177;28;20520;-68
2022/05/03 04:39:52;;;;;;;33.17;19.80;;;5.10;99.90;;;;;;5048028;28;20115;-68
2022/05/03 04:42:18;;;;;;;28.33;21.30;;;5.20;99.90;;;;;;5047873;28;20045;-68
2022/05/03 04:44:44;;;;;;;26.23;22.13;;;5.30;99.90;;;;;;5027536;28;20049;-67
2022/05/03 04:47:09;;;;;;;28.45;21.85;;;5.30;99.90;;;;;;5049056;28;20051;-68
2022/05/03 04:49:35;;;;;;;30.00;23.48;;;5.30;99.90;;;;;;5030911;28;20044;-68
2022/05/03 04:52:01;;;;;;;29.73;23.52;;;5.40;99.90;;;;;;5030350;28;20056;-68
2022/05/03 04:54:27;;;;;;;26.75;22.27;;;5.40;99.90;;;;;;5031346;28;20041;-68
2022/05/03 04:57:00;;;;;;;30.13;23.67;;;5.50;99.90;;;;;;5045182;28;20048;-68
2022/05/03 04:59:26;;;;;;;28.52;23.83;;;5.50;99.90;;;;;;5027622;28;20079;-68
2022/05/03 05:01:51;;;;;;;36.72;23.77;;;5.60;99.90;;;;;;5020862;28;20081;-68
2022/05/03 05:04:17;;;;;;;30.90;21.40;;;5.70;99.90;;;;;;5046401;28;20048;-68
2022/05/03 05:06:43;;;;;;;35.40;24.02;;;5.80;99.90;;;;;;5030589;28;20033;-68
2022/05/03 05:09:09;;;;;;;33.10;23.38;;;5.90;99.90;;;;;;5048357;28;20117;-68
2022/05/03 05:11:35;;;;;;;33.33;24.60;;;6.00;99.90;;;;;;5047099;28;20072;-68
2022/05/03 05:14:00;;;;;;;28.00;22.17;;;6.10;99.90;;;;;;5055420;28;20674;-68
2022/05/03 05:16:26;;;;;;;39.10;23.42;;;6.20;99.90;;;;;;5041740;28;20041;-68
2022/05/03 05:18:51;;;;;;;37.22;24.90;;;6.30;99.90;;;;;;5026938;28;20402;-68
2022/05/03 05:21:17;;;;;;;32.42;24.92;;;6.40;99.90;;;;;;5048089;28;20056;-68
2022/05/03 05:23:43;;;;;;;31.88;23.95;;;6.50;99.90;;;;;;5046649;28;20116;-68
2022/05/03 05:26:09;;;;;;;36.78;22.10;;;6.60;99.90;;;;;;5047666;28;20049;-68
2022/05/03 05:28:34;;;;;;;31.10;22.88;;;6.70;99.90;;;;;;5048428;28;20106;-68
2022/05/03 05:31:00;;;;;;;29.90;21.15;;;6.80;99.90;;;;;;5048447;28;20099;-68
2022/05/03 05:33:26;;;;;;;31.45;24.20;;;6.90;99.90;;;;;;5026738;28;20148;-68
2022/05/03 05:35:52;;;;;;;32.50;24.30;;;6.90;99.90;;;;;;5021142;28;20131;-68
2022/05/03 05:38:18;;;;;;;34.00;25.48;;;7.00;99.90;;;;;;5027043;28;20518;-68
2022/05/03 05:40:46;;;;;;;30.48;25.73;;;7.00;99.90;;;;;;5027477;28;20130;-68
2022/05/03 05:43:12;;;;;;;41.77;28.23;;;7.10;99.90;;;;;;5026751;28;20060;-68
2022/05/03 05:45:38;;;;;;;37.30;25.42;;;7.10;99.90;;;;;;5027197;28;20053;-69
2022/05/03 05:48:05;;;;;;;35.38;26.02;;;7.20;99.90;;;;;;5027186;28;20398;-68
2022/05/03 05:50:31;;;;;;;37.63;27.38;;;7.20;99.90;;;;;;5026727;28;20053;-69
2022/05/03 05:55:42;;;;;;;47.53;29.80;;;7.30;99.90;;;;;;5026223;28;20076;-69
2022/05/03 05:58:09;;;;;;;45.70;31.38;;;7.40;99.90;;;;;;5026230;28;20057;-69
2022/05/03 06:00:34;;;;;;;38.92;28.58;;;7.40;99.90;;;;;;5025926;28;20041;-70
2022/05/03 06:03:01;;;;;;;40.78;31.88;;;7.50;99.90;;;;;;5024100;28;20917;-69
2022/05/03 06:05:27;;;;;;;43.30;31.42;;;7.60;99.90;;;;;;5025374;28;20069;-69
2022/05/03 06:07:53;;;;;;;44.40;31.23;;;7.70;99.90;;;;;;5027632;28;20058;-69
2022/05/03 06:10:23;;;;;;;43.22;32.33;;;7.80;99.90;;;;;;5030641;28;20107;-69
2022/05/03 06:12:49;;;;;;;39.60;32.60;;;7.80;99.90;;;;;;5029475;28;20048;-70
2022/05/03 06:15:16;;;;;;;50.67;36.47;;;7.90;99.90;;;;;;5030898;28;20049;-69
2022/05/03 06:17:41;;;;;;;51.22;36.65;;;8.00;99.90;;;;;;5031440;28;20053;-70
2022/05/03 06:20:09;;;;;;;60.13;41.80;;;8.10;99.90;;;;;;5031776;28;20046;-69
2022/05/03 06:22:34;;;;;;;65.50;41.25;;;8.20;99.90;;;;;;5027401;28;20442;-69
2022/05/03 06:25:00;;;;;;;62.40;42.47;;;8.30;99.90;;;;;;5030014;28;20042;-69
2022/05/03 06:27:26;;;;;;;61.42;40.50;;;8.40;99.90;;;;;;5022848;28;20038;-70
2022/05/03 06:29:51;;;;;;;67.78;42.97;;;8.40;99.90;;;;;;5031632;28;20060;-69
2022/05/03 06:32:17;;;;;;;63.60;41.00;;;8.50;99.90;;;;;;5031420;28;20131;-69
2022/05/03 06:34:43;;;;;;;61.08;41.60;;;8.60;99.90;;;;;;5030894;28;20083;-72
2022/05/03 06:37:08;;;;;;;65.18;43.67;;;8.70;99.90;;;;;;5033404;28;20371;-73
2022/05/03 06:39:37;;;;;;;64.72;41.92;;;8.70;99.90;;;;;;5033494;28;20568;-71
2022/05/03 06:42:05;;;;;;;62.90;43.03;;;8.80;99.90;;;;;;5048501;28;20049;-69
2022/05/03 06:44:31;;;;;;;74.80;46.05;;;8.90;99.90;;;;;;5049755;28;20056;-69
2022/05/03 06:46:56;;;;;;;72.03;44.85;;;9.00;99.90;;;;;;5050740;28;20398;-70
2022/05/03 06:49:22;;;;;;;66.80;44.88;;;9.10;99.90;;;;;;5050219;28;20049;-70
2022/05/03 06:51:47;;;;;;;67.18;45.28;;;9.10;99.90;;;;;;5043955;28;20049;-69
2022/05/03 06:54:13;;;;;;;71.40;46.78;;;9.20;99.90;;;;;;5044441;28;20045;-68
2022/05/03 06:56:39;;;;;;;76.85;49.88;;;9.20;99.90;;;;;;5032675;28;20194;-69
2022/05/03 06:59:08;;;;;;;82.40;51.70;;;9.30;99.90;;;;;;5051155;28;20056;-67
2022/05/03 07:01:35;;;;;;;72.18;48.42;;;9.40;99.90;;;;;;5044055;28;20427;-70
2022/05/03 07:04:01;;;;;;;84.22;52.20;;;9.50;99.90;;;;;;5022370;28;20053;-69
2022/05/03 07:06:27;;;;;;;86.40;52.33;;;9.50;99.90;;;;;;5047828;28;20084;-68
2022/05/03 07:08:53;;;;;;;83.95;50.92;;;9.60;99.90;;;;;;5032950;28;20056;-69
2022/05/03 07:11:19;;;;;;;83.45;51.60;;;9.70;99.90;;;;;;5049862;28;20049;-69
2022/05/03 07:13:45;;;;;;;92.18;54.00;;;9.70;99.90;;;;;;5049628;28;20140;-68
2022/05/03 07:16:11;;;;;;;91.72;55.00;;;9.80;99.90;;;;;;5038583;28;20060;-67
2022/05/03 07:24:06;;;;;;;99.75;60.55;;;9.90;99.90;;;;;;5029802;28;20049;-68
2022/05/03 07:26:32;;;;;;;93.28;57.03;;;10.00;99.90;;;;;;5049881;28;20407;-68
2022/05/03 07:28:58;;;;;;;92.40;56.55;;;10.00;99.90;;;;;;5047039;28;20045;-68
2022/05/03 07:31:24;;;;;;;91.72;55.50;;;10.10;99.90;;;;;;5035219;28;20413;-69
2022/05/03 07:33:49;;;;;;;89.25;55.33;;;10.10;99.90;;;;;;5050636;28;20503;-68
2022/05/03 07:36:18;;;;;;;86.57;53.60;;;10.10;99.90;;;;;;5050218;28;20490;-68
2022/05/03 07:38:45;;;;;;;80.53;47.90;;;10.10;99.90;;;;;;5032184;28;20445;-68
2022/05/03 07:41:12;;;;;;;74.25;48.40;;;10.10;99.90;;;;;;5032281;28;20428;-67
2022/05/03 07:43:37;;;;;;;78.53;48.85;;;10.10;99.90;;;;;;5049597;28;20083;-70
2022/05/03 07:46:03;;;;;;;73.18;44.45;;;10.10;99.90;;;;;;5032248;28;20045;-69
2022/05/03 07:48:29;;;;;;;68.05;41.67;;;10.20;99.90;;;;;;5032215;28;20055;-70
2022/05/03 07:50:55;;;;;;;56.17;38.30;;;10.10;99.90;;;;;;5050460;28;20049;-70
2022/05/03 07:53:21;;;;;;;61.17;37.55;;;10.10;99.90;;;;;;5015781;28;20147;-70
2022/05/03 07:55:48;;;;;;;55.50;34.47;;;10.20;99.90;;;;;;5047880;28;20044;-68
2022/05/03 07:58:15;;;;;;;51.05;33.17;;;10.20;99.90;;;;;;5032030;28;20422;-71
2022/05/03 08:00:41;;;;;;;48.47;29.52;;;10.20;99.90;;;;;;5032093;28;20119;-69
2022/05/03 08:03:07;;;;;;;36.60;19.35;;;10.10;99.90;;;;;;5040823;28;20513;-69
2022/05/03 08:05:33;;;;;;;23.50;14.80;;;10.10;99.90;;;;;;5049752;28;20124;-68
2022/05/03 08:08:00;;;;;;;30.60;15.18;;;10.10;99.90;;;;;;5049842;28;20045;-68
2022/05/03 08:10:26;;;;;;;18.50;11.45;;;10.10;99.90;;;;;;5043530;28;20427;-70
2022/05/03 08:12:51;;;;;;;21.45;10.43;;;10.20;99.90;;;;;;5029271;28;20045;-70
2022/05/03 08:15:19;;;;;;;21.80;11.68;;;10.20;99.90;;;;;;5048864;28;20107;-69
2022/05/03 08:17:45;;;;;;;22.25;11.52;;;10.30;99.90;;;;;;5049725;28;20075;-70
2022/05/03 08:20:13;;;;;;;18.92;9.50;;;10.30;99.90;;;;;;5031732;28;20529;-69
2022/05/03 08:22:39;;;;;;;17.23;9.65;;;10.40;99.90;;;;;;5038017;28;20565;-69
2022/05/03 08:25:06;;;;;;;18.35;9.35;;;10.30;99.90;;;;;;5030652;28;20521;-70
2022/05/03 08:27:33;;;;;;;19.17;10.63;;;10.40;99.90;;;;;;5036028;28;20904;-70
2022/05/03 08:29:59;;;;;;;13.10;9.30;;;10.40;99.90;;;;;;5033853;28;20045;-69
2022/05/03 08:32:25;;;;;;;21.92;11.27;;;10.40;99.90;;;;;;5048719;28;20075;-71
2022/05/03 08:34:52;;;;;;;26.20;12.80;;;10.40;99.90;;;;;;5045581;28;20094;-69
2022/05/03 08:42:46;;;;;;;26.05;12.27;;;10.50;99.90;;;;;;5029253;28;20049;-70
2022/05/03 08:45:12;;;;;;;32.22;13.30;;;10.60;99.90;;;;;;5049165;28;20179;-69
2022/05/03 08:47:38;;;;;;;24.45;11.82;;;10.60;99.90;;;;;;5049158;28;20167;-70
2022/05/03 08:50:11;;;;;;;23.00;11.32;;;10.60;99.90;;;;;;5048348;28;20501;-69
2022/05/03 08:52:47;;;;;;;24.65;11.68;;;10.70;99.90;;;;;;5030645;28;20052;-68
2022/05/03 08:55:13;;;;;;;30.08;12.95;;;10.80;99.90;;;;;;5030868;28;20048;-68
2022/05/03 08:57:40;;;;;;;24.17;12.50;;;10.80;99.90;;;;;;5048727;28;20045;-68
2022/05/03 09:00:06;;;;;;;34.22;11.68;;;10.90;99.90;;;;;;5018036;28;20094;-67
2022/05/03 09:02:33;;;;;;;21.88;12.23;;;10.80;99.90;;;;;;5047699;28;20166;-67
2022/05/03 09:05:01;;;;;;;26.40;12.32;;;10.90;99.90;;;;;;5030669;28;20470;-68
2022/05/03 09:07:27;;;;;;;27.63;12.03;;;11.00;99.90;;;;;;5048239;28;20037;-68
2022/05/03 09:09:54;;;;;;;27.73;12.38;;;11.00;99.90;;;;;;5034476;28;20383;-68
2022/05/03 09:12:27;;;;;;;23.45;12.18;;;11.00;99.90;;;;;;5036617;28;20049;-68
2022/05/03 09:14:57;;;;;;;27.48;11.68;;;11.10;99.90;;;;;;5047754;28;20049;-68
2022/05/03 09:17:59;;;;;;;37.42;13.27;;;11.00;99.90;;;;;;5028625;28;20547;-68
2022/05/03 09:26:11;;;;;;;41.55;14.43;;;11.10;99.90;;;;;;5038318;28;20410;-68
2022/05/03 09:28:44;;;;;;;33.17;14.10;;;11.10;99.90;;;;;;5036410;28;20128;-67
2022/05/03 09:31:09;;;;;;;42.40;14.70;;;11.10;99.90;;;;;;5030155;28;20064;-67
2022/05/03 09:33:37;;;;;;;41.30;15.73;;;11.10;99.90;;;;;;5047523;28;20049;-67
2022/05/03 09:36:10;;;;;;;28.70;14.10;;;11.10;99.90;;;;;;5043695;28;20507;-66
2022/05/03 09:38:50;;;;;;;38.47;16.50;;;11.00;99.90;;;;;;5048065;28;20076;-67
2022/05/03 09:41:17;;;;;;;43.05;14.98;;;11.10;99.90;;;;;;5034449;28;20115;-67
2022/05/03 09:44:21;;;;;;;39.85;15.43;;;11.10;99.90;;;;;;5052193;28;20045;-67
2022/05/03 09:46:52;;;;;;;36.78;16.13;;;11.00;99.90;;;;;;5001005;28;20080;-67
2022/05/03 09:49:20;;;;;;;42.83;14.50;;;10.90;99.90;;;;;;4990823;28;20117;-67
2022/05/03 09:51:48;;;;;;;50.28;18.00;;;10.90;99.90;;;;;;4984540;28;20049;-68
2022/05/03 09:54:14;;;;;;;;;;;10.90;99.90;;;;;;5052524;28;20098;-67
2022/05/03 09:56:42;;;;;;;33.08;14.32;;;10.90;99.90;;;;;;5052190;28;19925;-67
2022/05/03 09:59:08;;;;;;;;;;;10.90;99.90;;;;;;5037852;28;20121;-67
2022/05/03 10:01:35;;;;;;;36.20;15.00;;;10.90;99.90;;;;;;5051509;28;20003;-67
2022/05/03 10:04:01;;;;;;;33.60;14.55;;;11.00;99.90;;;;;;5033458;28;20676;-67
2022/05/03 10:06:29;;;;;;;44.55;14.65;;;11.10;99.90;;;;;;5051417;28;20049;-68
2022/05/03 10:08:55;;;;;;;40.58;13.00;;;11.10;99.90;;;;;;5052374;28;20522;-68
2022/05/03 10:11:26;;;;;;;36.90;12.27;;;11.10;99.90;;;;;;5042518;28;20053;-69
2022/05/03 10:13:53;;;;;;;37.10;14.00;;;11.20;99.90;;;;;;5052038;28;20403;-68
2022/05/03 10:21:55;;;;;;;;;;;11.30;99.90;;;;;;5052676;28;20052;-65
2022/05/03 10:24:21;;;;;;;31.15;12.00;;;11.30;99.90;;;;;;5052912;28;19967;-65
2022/05/03 10:26:52;;;;;;;18.70;9.48;;;11.40;99.90;;;;;;5052477;28;20095;-65
2022/05/03 10:29:19;;;;;;;23.58;9.27;;;11.40;99.90;;;;;;5051107;28;20461;-65
2022/05/03 10:32:00;;;;;;;22.73;9.35;;;11.50;99.90;;;;;;5047594;28;20144;-66
2022/05/03 10:34:51;;;;;;;22.48;9.20;;;11.60;99.90;;;;;;5042581;28;20053;-65
2022/05/03 10:37:46;;;;;;;20.20;10.02;;;11.60;99.90;;;;;;5050762;28;20037;-66
2022/05/03 10:40:13;;;;;;;23.90;9.63;;;11.70;99.90;;;;;;5018012;28;20041;-66
2022/05/03 10:42:40;;;;;;;32.30;10.50;;;11.70;99.90;;;;;;5046242;28;20133;-64
2022/05/03 10:45:14;;;;;;;19.23;8.70;;;11.70;99.90;;;;;;5051469;28;20171;-64
2022/05/03 10:47:54;;;;;;;18.48;8.07;;;11.80;99.90;;;;;;5051772;28;20045;-64
2022/05/03 10:50:42;;;;;;;14.70;7.40;;;12.00;99.90;;;;;;5050853;28;20048;-65
2022/05/03 10:53:09;;;;;;;18.33;8.23;;;12.10;99.90;;;;;;5047066;28;20060;-65
2022/05/03 10:55:37;;;;;;;22.65;9.50;;;12.20;99.90;;;;;;5051429;28;20468;-65
2022/05/03 10:58:25;;;;;;;17.75;8.05;;;12.20;99.90;;;;;;5050830;28;20120;-65
2022/05/03 11:01:02;;;;;;;17.90;8.13;;;12.10;99.90;;;;;;5051265;28;20071;-65
2022/05/03 11:03:29;;;;;;;20.00;8.48;;;12.10;99.90;;;;;;5040854;28;20047;-64
2022/05/03 11:06:25;;;;;;;25.77;8.77;;;12.20;99.90;;;;;;5045162;28;20568;-65
2022/05/03 11:11:43;;;;;;;15.68;8.18;;;12.20;99.90;;;;;;5049463;28;20072;-65
2022/05/03 11:14:32;;;;;;;24.95;9.30;;;12.30;99.90;;;;;;5051544;28;20045;-65
2022/05/03 11:17:05;;;;;;;11.25;8.07;;;12.40;99.90;;;;;;5024887;28;20053;-65
2022/05/03 11:19:52;;;;;;;25.02;9.27;;;12.50;99.90;;;;;;5043617;28;20664;-65
2022/05/03 11:22:33;;;;;;;15.27;7.87;;;12.60;99.90;;;;;;5043891;28;20098;-64
2022/05/03 11:25:02;;;;;;;21.45;8.50;;;12.70;99.90;;;;;;5051545;28;20288;-64
2022/05/03 11:27:29;;;;;;;14.35;7.60;;;12.80;99.90;;;;;;5049900;28;20052;-64
2022/05/03 11:30:00;;;;;;;16.40;8.65;;;12.90;99.90;;;;;;5050601;28;20083;-64
2022/05/03 11:32:40;;;;;;;20.10;9.48;;;13.00;99.90;;;;;;5051083;28;20135;-64
2022/05/03 11:35:20;;;;;;;23.33;8.82;;;13.20;99.90;;;;;;5050690;28;20060;-64
2022/05/03 11:37:52;;;;;;;22.17;8.63;;;13.20;99.90;;;;;;5049936;28;20099;-65
2022/05/03 11:40:20;;;;;;;21.42;8.95;;;13.20;99.90;;;;;;5049852;28;20559;-64
2022/05/03 11:42:47;;;;;;;22.60;7.70;;;13.20;99.90;;;;;;5049922;28;20082;-64
2022/05/03 11:45:14;;;;;;;17.00;7.07;;;13.20;99.90;;;;;;5049599;28;20596;-64
2022/05/03 11:47:44;;;;;;;30.25;9.43;;;13.30;99.90;;;;;;5049655;28;20048;-66
2022/05/03 11:50:13;;;;;;;16.30;8.18;;;13.40;99.90;;;;;;5048710;28;20125;-65
2022/05/03 11:58:10;;;;;;;20.70;7.50;;;13.70;99.90;;;;;;5049821;28;20047;-64
2022/05/03 12:00:46;;;;;;;17.42;7.78;;;13.80;99.90;;;;;;5049964;28;20408;-65
2022/05/03 12:03:12;;;;;;;14.50;7.00;;;13.90;99.90;;;;;;5049313;28;20116;-65
2022/05/03 12:05:39;;;;;;;11.90;7.75;;;13.90;99.90;;;;;;5048581;28;20116;-65
2022/05/03 12:08:17;;;;;;;25.45;8.70;;;14.00;99.90;;;;;;5048775;28;20037;-65
2022/05/03 12:10:42;;;;;;;17.10;8.55;;;13.90;99.90;;;;;;5039737;28;20056;-65
2022/05/03 12:13:09;;;;;;;19.27;7.93;;;14.00;99.90;;;;;;5047976;28;20047;-65
2022/05/03 12:15:39;;;;;;;15.50;7.38;;;14.20;99.90;;;;;;5043820;28;20387;-65
2022/05/03 12:18:09;;;;;;;18.20;6.47;;;14.20;99.90;;;;;;5048989;28;20067;-65
2022/05/03 12:20:57;;;;;;;18.60;7.25;;;14.20;99.90;;;;;;5031463;28;20076;-65
2022/05/03 12:23:36;;;;;;;;;;;14.10;99.90;;;;;;5044040;28;20186;-66
2022/05/03 12:26:25;;;;;;;18.80;7.95;;;14.10;94.70;;;;;;5030751;28;19928;-66
2022/05/03 12:28:57;;;;;;;12.32;7.18;;;13.90;97.20;;;;;;5049470;28;20410;-65
2022/05/03 12:31:30;;;;;;;14.65;6.65;;;13.90;99.90;;;;;;5049742;28;20045;-65
2022/05/03 12:33:58;;;;;;;13.40;6.22;;;14.10;99.90;;;;;;5049227;28;20395;-65
2022/05/03 12:36:38;;;;;;;13.00;7.10;;;14.20;99.90;;;;;;5048866;28;20102;-65
2022/05/03 12:39:16;;;;;;;13.82;5.75;;;14.30;99.90;;;;;;5047952;28;20040;-65
2022/05/03 12:41:42;;;;;;;19.52;6.75;;;14.40;99.90;;;;;;5036415;28;20582;-64
2022/05/03 12:44:13;;;;;;;11.07;6.78;;;14.40;99.90;;;;;;5043239;28;20128;-65
2022/05/03 12:46:40;;;;;;;19.58;6.82;;;14.60;99.90;;;;;;5039327;28;20732;-65
2022/05/03 12:49:11;;;;;;;11.90;6.13;;;14.70;99.90;;;;;;5048850;28;20048;-65
2022/05/03 12:51:41;;;;;;;16.95;6.35;;;14.90;99.90;;;;;;5049179;28;20045;-65
2022/05/03 12:54:10;;;;;;;15.90;6.95;;;15.00;99.90;;;;;;5029886;28;20099;-64
2022/05/03 12:59:21;;;;;;;15.30;6.90;;;15.20;98.40;;;;;;5036483;28;20060;-65
2022/05/03 13:01:53;;;;;;;12.05;6.53;;;15.10;99.10;;;;;;5038794;28;20052;-65
2022/05/03 13:04:19;;;;;;;13.50;6.00;;;15.00;95.30;;;;;;5049084;28;20118;-65
2022/05/03 13:06:46;;;;;;;16.95;6.60;;;15.00;94.90;;;;;;5048408;28;20052;-65
2022/05/03 13:09:12;;;;;;;12.20;5.53;;;14.90;94.10;;;;;;5032925;28;20087;-65
2022/05/03 13:11:38;;;;;;;13.50;5.30;;;15.10;91.30;;;;;;5040717;28;20049;-65
2022/05/03 13:14:08;;;;;;;7.78;5.40;;;15.10;91.20;;;;;;5048661;28;20409;-65
2022/05/03 13:16:35;;;;;;;18.80;7.32;;;15.30;90.10;;;;;;5047498;28;20462;-65
2022/05/03 13:19:01;;;;;;;12.27;5.15;;;15.50;86.30;;;;;;5042249;28;20679;-65
2022/05/03 13:21:27;;;;;;;16.17;6.63;;;15.60;86.20;;;;;;5029503;28;20053;-65
2022/05/03 13:23:55;;;;;;;15.10;6.05;;;15.40;87.90;;;;;;5048087;28;20127;-65
2022/05/03 13:26:22;;;;;;;9.65;4.82;;;15.30;85.00;;;;;;5048489;28;20091;-65
2022/05/03 13:28:48;;;;;;;30.52;6.18;;;15.20;81.70;;;;;;5048237;28;20049;-65
2022/05/03 13:31:14;;;;;;;8.07;5.57;;;15.00;87.80;;;;;;5048076;28;20043;-65
2022/05/03 13:33:40;;;;;;;11.07;5.65;;;14.90;88.50;;;;;;5048854;28;20140;-65
2022/05/03 13:41:34;;;;;;;12.13;5.10;;;15.00;87.10;;;;;;5048145;28;20413;-66
2022/05/03 13:44:01;;;;;;;11.23;5.35;;;15.00;89.40;;;;;;5047710;28;20111;-66
2022/05/03 13:46:27;;;;;;;7.43;5.18;;;14.80;84.80;;;;;;5047894;28;20055;-65